sensor_id;sensor_type;location;lat;lon;timestamp;P1;durP1;ratioP1;P2;durP2;ratioP2
19923;SDS011;10124;53.068;18.224;2023-03-01T00:01:22;91.50;;;49.37;;
19923;SDS011;10124;53.068;18.224;2023-03-01T00:03:53;119.33;;;60.60;;
19923;SDS011;10124;53.068;18.224;2023-03-01T00:06:22;124.87;;;62.47;;
19923;SDS011;10124;53.068;18.224;2023-03-01T00:08:50;114.00;;;59.63;;
19923;SDS011;10124;53.068;18.224;2023-03-01T00:11:19;120.07;;;57.53;;
19923;SDS011;10124;53.068;18.224;2023-03-01T00:13:53;123.77;;;59.80;;
19923;SDS011;10124;53.068;18.224;2023-03-01T00:16:23;128.67;;;58.87;;
19923;SDS011;10124;53.068;18.224;2023-03-01T00:18:54;124.53;;;57.93;;
19923;SDS011;10124;53.068;18.224;2023-03-01T00:21:22;111.27;;;55.80;;
19923;SDS011;10124;53.068;18.224;2023-03-01T00:23:50;108.43;;;51.80;;
19923;SDS011;10124;53.068;18.224;2023-03-01T00:26:18;94.07;;;47.57;;
19923;SDS011;10124;53.068;18.224;2023-03-01T00:28:47;82.73;;;42.10;;
19923;SDS011;10124;53.068;18.224;2023-03-01T00:31:16;89.17;;;45.33;;
19923;SDS011;10124;53.068;18.224;2023-03-01T00:33:46;87.00;;;44.43;;
19923;SDS011;10124;53.068;18.224;2023-03-01T00:36:14;67.57;;;36.30;;
19923;SDS011;10124;53.068;18.224;2023-03-01T00:38:43;55.10;;;33.20;;
19923;SDS011;10124;53.068;18.224;2023-03-01T00:41:13;58.57;;;33.23;;
19923;SDS011;10124;53.068;18.224;2023-03-01T00:43:43;62.03;;;35.23;;
19923;SDS011;10124;53.068;18.224;2023-03-01T00:46:12;63.13;;;35.60;;
19923;SDS011;10124;53.068;18.224;2023-03-01T00:48:43;63.03;;;37.07;;
19923;SDS011;10124;53.068;18.224;2023-03-01T00:51:13;68.43;;;39.00;;
19923;SDS011;10124;53.068;18.224;2023-03-01T00:53:43;70.53;;;38.53;;
19923;SDS011;10124;53.068;18.224;2023-03-01T00:56:12;73.63;;;38.27;;
19923;SDS011;10124;53.068;18.224;2023-03-01T00:58:43;73.73;;;38.30;;
19923;SDS011;10124;53.068;18.224;2023-03-01T01:01:12;66.93;;;36.73;;
19923;SDS011;10124;53.068;18.224;2023-03-01T01:03:45;62.57;;;38.27;;
19923;SDS011;10124;53.068;18.224;2023-03-01T01:06:22;60.13;;;34.87;;
19923;SDS011;10124;53.068;18.224;2023-03-01T01:08:53;58.77;;;34.13;;
19923;SDS011;10124;53.068;18.224;2023-03-01T01:11:22;52.77;;;32.00;;
19923;SDS011;10124;53.068;18.224;2023-03-01T01:13:52;55.83;;;32.90;;
19923;SDS011;10124;53.068;18.224;2023-03-01T01:16:20;64.57;;;34.73;;
19923;SDS011;10124;53.068;18.224;2023-03-01T01:18:49;54.90;;;33.13;;
19923;SDS011;10124;53.068;18.224;2023-03-01T01:21:18;58.00;;;34.33;;
19923;SDS011;10124;53.068;18.224;2023-03-01T01:23:48;58.70;;;35.03;;
19923;SDS011;10124;53.068;18.224;2023-03-01T01:26:20;57.30;;;34.17;;
19923;SDS011;10124;53.068;18.224;2023-03-01T01:28:49;58.00;;;33.70;;
19923;SDS011;10124;53.068;18.224;2023-03-01T01:31:17;58.07;;;34.07;;
19923;SDS011;10124;53.068;18.224;2023-03-01T01:33:46;58.37;;;33.70;;
19923;SDS011;10124;53.068;18.224;2023-03-01T01:36:13;60.73;;;34.37;;
19923;SDS011;10124;53.068;18.224;2023-03-01T01:38:41;68.17;;;33.93;;
19923;SDS011;10124;53.068;18.224;2023-03-01T01:41:09;59.17;;;34.47;;
19923;SDS011;10124;53.068;18.224;2023-03-01T01:43:46;58.47;;;35.13;;
19923;SDS011;10124;53.068;18.224;2023-03-01T01:46:25;56.30;;;33.03;;
19923;SDS011;10124;53.068;18.224;2023-03-01T01:51:37;61.40;;;37.90;;
19923;SDS011;10124;53.068;18.224;2023-03-01T01:54:13;63.67;;;36.73;;
19923;SDS011;10124;53.068;18.224;2023-03-01T01:56:47;61.73;;;37.40;;
19923;SDS011;10124;53.068;18.224;2023-03-01T01:59:18;65.27;;;38.77;;
19923;SDS011;10124;53.068;18.224;2023-03-01T02:01:51;64.73;;;38.87;;
19923;SDS011;10124;53.068;18.224;2023-03-01T02:04:20;69.53;;;38.53;;
19923;SDS011;10124;53.068;18.224;2023-03-01T02:06:54;69.33;;;41.00;;
19923;SDS011;10124;53.068;18.224;2023-03-01T02:09:29;69.27;;;38.70;;
19923;SDS011;10124;53.068;18.224;2023-03-01T02:12:01;70.93;;;39.17;;
19923;SDS011;10124;53.068;18.224;2023-03-01T02:14:31;67.57;;;39.20;;
19923;SDS011;10124;53.068;18.224;2023-03-01T02:16:59;66.30;;;38.27;;
19923;SDS011;10124;53.068;18.224;2023-03-01T02:22:17;70.50;;;40.73;;
19923;SDS011;10124;53.068;18.224;2023-03-01T02:24:56;68.20;;;39.70;;
19923;SDS011;10124;53.068;18.224;2023-03-01T02:27:42;66.37;;;40.27;;
19923;SDS011;10124;53.068;18.224;2023-03-01T02:30:24;61.80;;;37.37;;
19923;SDS011;10124;53.068;18.224;2023-03-01T02:32:52;63.90;;;37.80;;
19923;SDS011;10124;53.068;18.224;2023-03-01T02:35:31;65.43;;;36.67;;
19923;SDS011;10124;53.068;18.224;2023-03-01T02:38:06;59.80;;;36.63;;
19923;SDS011;10124;53.068;18.224;2023-03-01T02:40:35;60.70;;;37.93;;
19923;SDS011;10124;53.068;18.224;2023-03-01T02:43:07;63.17;;;38.33;;
19923;SDS011;10124;53.068;18.224;2023-03-01T02:45:42;62.87;;;37.87;;
19923;SDS011;10124;53.068;18.224;2023-03-01T02:48:14;61.47;;;35.20;;
19923;SDS011;10124;53.068;18.224;2023-03-01T02:51:04;60.27;;;36.20;;
19923;SDS011;10124;53.068;18.224;2023-03-01T02:56:14;55.70;;;34.27;;
19923;SDS011;10124;53.068;18.224;2023-03-01T02:58:42;59.63;;;32.10;;
19923;SDS011;10124;53.068;18.224;2023-03-01T03:01:19;62.07;;;34.40;;
19923;SDS011;10124;53.068;18.224;2023-03-01T03:03:47;56.40;;;35.43;;
19923;SDS011;10124;53.068;18.224;2023-03-01T03:06:14;57.87;;;35.00;;
19923;SDS011;10124;53.068;18.224;2023-03-01T03:08:43;54.07;;;33.10;;
19923;SDS011;10124;53.068;18.224;2023-03-01T03:11:11;51.90;;;31.50;;
19923;SDS011;10124;53.068;18.224;2023-03-01T03:13:38;49.13;;;31.43;;
19923;SDS011;10124;53.068;18.224;2023-03-01T03:16:16;51.40;;;31.83;;
19923;SDS011;10124;53.068;18.224;2023-03-01T03:18:44;54.63;;;32.30;;
19923;SDS011;10124;53.068;18.224;2023-03-01T03:21:12;52.23;;;31.37;;
19923;SDS011;10124;53.068;18.224;2023-03-01T03:23:40;49.00;;;30.13;;
19923;SDS011;10124;53.068;18.224;2023-03-01T03:26:08;52.73;;;31.13;;
19923;SDS011;10124;53.068;18.224;2023-03-01T03:28:42;52.97;;;30.67;;
19923;SDS011;10124;53.068;18.224;2023-03-01T03:31:10;48.27;;;30.33;;
19923;SDS011;10124;53.068;18.224;2023-03-01T03:33:37;54.37;;;32.33;;
19923;SDS011;10124;53.068;18.224;2023-03-01T03:36:06;53.33;;;30.03;;
19923;SDS011;10124;53.068;18.224;2023-03-01T03:38:34;48.17;;;29.97;;
19923;SDS011;10124;53.068;18.224;2023-03-01T03:41:02;48.13;;;31.27;;
19923;SDS011;10124;53.068;18.224;2023-03-01T03:43:35;48.33;;;29.50;;
19923;SDS011;10124;53.068;18.224;2023-03-01T03:46:04;48.10;;;28.47;;
19923;SDS011;10124;53.068;18.224;2023-03-01T03:48:33;48.30;;;28.03;;
19923;SDS011;10124;53.068;18.224;2023-03-01T03:51:02;46.30;;;27.53;;
19923;SDS011;10124;53.068;18.224;2023-03-01T03:53:32;48.57;;;28.23;;
19923;SDS011;10124;53.068;18.224;2023-03-01T03:56:00;46.40;;;29.07;;
19923;SDS011;10124;53.068;18.224;2023-03-01T03:58:28;49.97;;;29.23;;
19923;SDS011;10124;53.068;18.224;2023-03-01T04:00:56;49.37;;;28.73;;
19923;SDS011;10124;53.068;18.224;2023-03-01T04:03:25;42.70;;;27.37;;
19923;SDS011;10124;53.068;18.224;2023-03-01T04:05:53;50.40;;;29.27;;
19923;SDS011;10124;53.068;18.224;2023-03-01T04:08:22;45.67;;;28.27;;
19923;SDS011;10124;53.068;18.224;2023-03-01T04:10:51;51.60;;;29.07;;
19923;SDS011;10124;53.068;18.224;2023-03-01T04:13:23;50.10;;;28.60;;
19923;SDS011;10124;53.068;18.224;2023-03-01T04:15:53;52.57;;;30.70;;
19923;SDS011;10124;53.068;18.224;2023-03-01T04:18:22;51.70;;;29.80;;
19923;SDS011;10124;53.068;18.224;2023-03-01T04:20:52;60.67;;;31.13;;
19923;SDS011;10124;53.068;18.224;2023-03-01T04:23:22;53.43;;;30.73;;
19923;SDS011;10124;53.068;18.224;2023-03-01T04:25:51;48.03;;;30.17;;
19923;SDS011;10124;53.068;18.224;2023-03-01T04:28:27;51.57;;;31.77;;
19923;SDS011;10124;53.068;18.224;2023-03-01T04:31:03;53.73;;;32.23;;
19923;SDS011;10124;53.068;18.224;2023-03-01T04:33:44;60.00;;;32.93;;
19923;SDS011;10124;53.068;18.224;2023-03-01T04:36:16;60.80;;;31.97;;
19923;SDS011;10124;53.068;18.224;2023-03-01T04:38:44;49.23;;;29.87;;
19923;SDS011;10124;53.068;18.224;2023-03-01T04:41:17;43.30;;;27.67;;
19923;SDS011;10124;53.068;18.224;2023-03-01T04:43:45;54.20;;;30.87;;
19923;SDS011;10124;53.068;18.224;2023-03-01T04:46:14;48.60;;;28.40;;
19923;SDS011;10124;53.068;18.224;2023-03-01T04:48:44;46.90;;;28.63;;
19923;SDS011;10124;53.068;18.224;2023-03-01T04:51:14;42.37;;;27.90;;
19923;SDS011;10124;53.068;18.224;2023-03-01T04:53:43;50.70;;;27.83;;
19923;SDS011;10124;53.068;18.224;2023-03-01T04:56:11;47.83;;;29.47;;
19923;SDS011;10124;53.068;18.224;2023-03-01T04:58:40;49.30;;;29.10;;
19923;SDS011;10124;53.068;18.224;2023-03-01T05:01:16;49.50;;;29.53;;
19923;SDS011;10124;53.068;18.224;2023-03-01T05:03:47;49.43;;;29.33;;
19923;SDS011;10124;53.068;18.224;2023-03-01T05:06:17;45.27;;;28.47;;
19923;SDS011;10124;53.068;18.224;2023-03-01T05:08:46;49.30;;;29.40;;
19923;SDS011;10124;53.068;18.224;2023-03-01T05:11:14;54.17;;;30.30;;
19923;SDS011;10124;53.068;18.224;2023-03-01T05:13:41;44.23;;;27.60;;
19923;SDS011;10124;53.068;18.224;2023-03-01T05:16:10;45.93;;;27.43;;
19923;SDS011;10124;53.068;18.224;2023-03-01T05:18:39;48.13;;;29.63;;
19923;SDS011;10124;53.068;18.224;2023-03-01T05:21:09;49.67;;;28.63;;
19923;SDS011;10124;53.068;18.224;2023-03-01T05:23:39;47.47;;;28.57;;
19923;SDS011;10124;53.068;18.224;2023-03-01T05:26:06;43.70;;;27.83;;
19923;SDS011;10124;53.068;18.224;2023-03-01T05:28:47;46.30;;;29.40;;
19923;SDS011;10124;53.068;18.224;2023-03-01T05:31:16;57.07;;;31.13;;
19923;SDS011;10124;53.068;18.224;2023-03-01T05:33:44;54.30;;;31.67;;
19923;SDS011;10124;53.068;18.224;2023-03-01T05:36:12;54.17;;;30.77;;
19923;SDS011;10124;53.068;18.224;2023-03-01T05:38:39;48.63;;;30.00;;
19923;SDS011;10124;53.068;18.224;2023-03-01T05:41:13;45.73;;;27.73;;
19923;SDS011;10124;53.068;18.224;2023-03-01T05:43:43;52.87;;;30.40;;
19923;SDS011;10124;53.068;18.224;2023-03-01T05:46:12;50.90;;;31.37;;
19923;SDS011;10124;53.068;18.224;2023-03-01T05:48:42;44.87;;;28.77;;
19923;SDS011;10124;53.068;18.224;2023-03-01T05:51:11;50.27;;;29.23;;
19923;SDS011;10124;53.068;18.224;2023-03-01T05:53:38;50.57;;;28.43;;
19923;SDS011;10124;53.068;18.224;2023-03-01T05:56:06;47.60;;;27.30;;
19923;SDS011;10124;53.068;18.224;2023-03-01T05:58:34;45.20;;;28.23;;
19923;SDS011;10124;53.068;18.224;2023-03-01T06:01:02;49.63;;;27.87;;
19923;SDS011;10124;53.068;18.224;2023-03-01T06:03:30;49.13;;;28.03;;
19923;SDS011;10124;53.068;18.224;2023-03-01T06:05:58;45.13;;;28.50;;
19923;SDS011;10124;53.068;18.224;2023-03-01T06:08:26;42.17;;;26.67;;
19923;SDS011;10124;53.068;18.224;2023-03-01T06:10:54;49.13;;;28.77;;
19923;SDS011;10124;53.068;18.224;2023-03-01T06:13:23;46.43;;;27.87;;
19923;SDS011;10124;53.068;18.224;2023-03-01T06:15:50;48.80;;;28.33;;
19923;SDS011;10124;53.068;18.224;2023-03-01T06:18:19;44.93;;;28.50;;
19923;SDS011;10124;53.068;18.224;2023-03-01T06:20:52;44.73;;;27.67;;
19923;SDS011;10124;53.068;18.224;2023-03-01T06:23:20;53.67;;;33.03;;
19923;SDS011;10124;53.068;18.224;2023-03-01T06:25:49;50.10;;;30.50;;
19923;SDS011;10124;53.068;18.224;2023-03-01T06:28:17;51.27;;;30.33;;
19923;SDS011;10124;53.068;18.224;2023-03-01T06:30:45;49.17;;;32.40;;
19923;SDS011;10124;53.068;18.224;2023-03-01T06:33:13;49.23;;;29.90;;
19923;SDS011;10124;53.068;18.224;2023-03-01T06:35:41;50.03;;;29.53;;
19923;SDS011;10124;53.068;18.224;2023-03-01T06:38:09;46.77;;;27.27;;
19923;SDS011;10124;53.068;18.224;2023-03-01T06:40:37;43.90;;;25.93;;
19923;SDS011;10124;53.068;18.224;2023-03-01T06:43:05;43.40;;;26.43;;
19923;SDS011;10124;53.068;18.224;2023-03-01T06:45:34;46.90;;;26.60;;
19923;SDS011;10124;53.068;18.224;2023-03-01T06:48:03;44.53;;;25.30;;
19923;SDS011;10124;53.068;18.224;2023-03-01T06:50:32;44.43;;;24.57;;
19923;SDS011;10124;53.068;18.224;2023-03-01T06:53:00;45.67;;;26.67;;
19923;SDS011;10124;53.068;18.224;2023-03-01T06:55:28;48.33;;;28.23;;
19923;SDS011;10124;53.068;18.224;2023-03-01T06:57:59;43.93;;;25.53;;
19923;SDS011;10124;53.068;18.224;2023-03-01T07:00:28;47.37;;;25.80;;
19923;SDS011;10124;53.068;18.224;2023-03-01T07:02:58;45.53;;;25.83;;
19923;SDS011;10124;53.068;18.224;2023-03-01T07:05:29;38.07;;;24.53;;
19923;SDS011;10124;53.068;18.224;2023-03-01T07:07:57;41.00;;;24.50;;
19923;SDS011;10124;53.068;18.224;2023-03-01T07:10:25;43.90;;;25.77;;
19923;SDS011;10124;53.068;18.224;2023-03-01T07:12:56;44.83;;;25.13;;
19923;SDS011;10124;53.068;18.224;2023-03-01T07:15:24;44.43;;;26.23;;
19923;SDS011;10124;53.068;18.224;2023-03-01T07:17:52;47.20;;;26.10;;
19923;SDS011;10124;53.068;18.224;2023-03-01T07:20:20;36.13;;;22.73;;
19923;SDS011;10124;53.068;18.224;2023-03-01T07:22:51;48.87;;;27.10;;
19923;SDS011;10124;53.068;18.224;2023-03-01T07:25:19;50.87;;;30.03;;
19923;SDS011;10124;53.068;18.224;2023-03-01T07:27:51;42.17;;;25.73;;
19923;SDS011;10124;53.068;18.224;2023-03-01T07:30:19;44.73;;;26.20;;
19923;SDS011;10124;53.068;18.224;2023-03-01T07:32:47;46.60;;;25.17;;
19923;SDS011;10124;53.068;18.224;2023-03-01T07:35:15;46.00;;;24.47;;
19923;SDS011;10124;53.068;18.224;2023-03-01T07:37:43;44.63;;;25.33;;
19923;SDS011;10124;53.068;18.224;2023-03-01T07:40:11;40.33;;;23.80;;
19923;SDS011;10124;53.068;18.224;2023-03-01T07:42:39;42.77;;;24.97;;
19923;SDS011;10124;53.068;18.224;2023-03-01T07:45:07;40.10;;;22.27;;
19923;SDS011;10124;53.068;18.224;2023-03-01T07:47:34;58.67;;;31.40;;
19923;SDS011;10124;53.068;18.224;2023-03-01T07:50:03;40.00;;;23.00;;
19923;SDS011;10124;53.068;18.224;2023-03-01T07:52:31;118.17;;;50.80;;
19923;SDS011;10124;53.068;18.224;2023-03-01T07:54:59;106.07;;;51.27;;
19923;SDS011;10124;53.068;18.224;2023-03-01T07:57:26;61.33;;;32.60;;
19923;SDS011;10124;53.068;18.224;2023-03-01T07:59:54;42.20;;;22.90;;
19923;SDS011;10124;53.068;18.224;2023-03-01T08:02:22;37.73;;;21.73;;
19923;SDS011;10124;53.068;18.224;2023-03-01T08:04:49;40.87;;;22.77;;
19923;SDS011;10124;53.068;18.224;2023-03-01T08:07:17;35.90;;;20.73;;
19923;SDS011;10124;53.068;18.224;2023-03-01T08:09:45;39.17;;;21.77;;
19923;SDS011;10124;53.068;18.224;2023-03-01T08:12:13;41.23;;;21.87;;
19923;SDS011;10124;53.068;18.224;2023-03-01T08:14:43;39.83;;;21.23;;
19923;SDS011;10124;53.068;18.224;2023-03-01T08:17:13;39.00;;;20.87;;
19923;SDS011;10124;53.068;18.224;2023-03-01T08:19:42;37.90;;;19.93;;
19923;SDS011;10124;53.068;18.224;2023-03-01T08:22:09;38.23;;;21.40;;
19923;SDS011;10124;53.068;18.224;2023-03-01T08:24:37;45.60;;;24.50;;
19923;SDS011;10124;53.068;18.224;2023-03-01T08:27:05;38.80;;;21.57;;
19923;SDS011;10124;53.068;18.224;2023-03-01T08:29:33;35.20;;;20.40;;
19923;SDS011;10124;53.068;18.224;2023-03-01T08:32:01;47.93;;;27.90;;
19923;SDS011;10124;53.068;18.224;2023-03-01T08:34:28;44.33;;;25.40;;
19923;SDS011;10124;53.068;18.224;2023-03-01T08:36:58;45.53;;;28.47;;
19923;SDS011;10124;53.068;18.224;2023-03-01T08:39:25;40.10;;;22.23;;
19923;SDS011;10124;53.068;18.224;2023-03-01T08:41:53;36.27;;;18.37;;
19923;SDS011;10124;53.068;18.224;2023-03-01T08:44:21;37.07;;;21.43;;
19923;SDS011;10124;53.068;18.224;2023-03-01T08:46:49;49.03;;;23.03;;
19923;SDS011;10124;53.068;18.224;2023-03-01T08:49:20;49.33;;;23.27;;
19923;SDS011;10124;53.068;18.224;2023-03-01T08:51:48;30.10;;;17.23;;
19923;SDS011;10124;53.068;18.224;2023-03-01T08:54:19;36.40;;;18.40;;
19923;SDS011;10124;53.068;18.224;2023-03-01T08:56:48;34.97;;;16.37;;
19923;SDS011;10124;53.068;18.224;2023-03-01T08:59:16;30.27;;;16.17;;
19923;SDS011;10124;53.068;18.224;2023-03-01T09:01:44;28.85;;;15.23;;
19923;SDS011;10124;53.068;18.224;2023-03-01T09:04:12;27.17;;;13.82;;
19923;SDS011;10124;53.068;18.224;2023-03-01T09:06:41;27.27;;;15.38;;
19923;SDS011;10124;53.068;18.224;2023-03-01T09:09:13;27.73;;;16.45;;
19923;SDS011;10124;53.068;18.224;2023-03-01T09:11:43;24.92;;;15.35;;
19923;SDS011;10124;53.068;18.224;2023-03-01T09:14:17;44.15;;;18.38;;
19923;SDS011;10124;53.068;18.224;2023-03-01T09:16:44;29.30;;;16.35;;
19923;SDS011;10124;53.068;18.224;2023-03-01T09:19:12;32.17;;;17.67;;
19923;SDS011;10124;53.068;18.224;2023-03-01T09:21:40;36.38;;;18.58;;
19923;SDS011;10124;53.068;18.224;2023-03-01T09:24:14;32.67;;;16.67;;
19923;SDS011;10124;53.068;18.224;2023-03-01T09:26:42;23.33;;;15.05;;
19923;SDS011;10124;53.068;18.224;2023-03-01T09:29:15;31.08;;;18.45;;
19923;SDS011;10124;53.068;18.224;2023-03-01T09:31:42;27.88;;;18.15;;
19923;SDS011;10124;53.068;18.224;2023-03-01T09:34:10;25.92;;;17.25;;
19923;SDS011;10124;53.068;18.224;2023-03-01T09:36:37;31.05;;;17.38;;
19923;SDS011;10124;53.068;18.224;2023-03-01T09:39:05;27.98;;;16.52;;
19923;SDS011;10124;53.068;18.224;2023-03-01T09:46:45;27.13;;;17.55;;
19923;SDS011;10124;53.068;18.224;2023-03-01T09:49:21;39.42;;;18.17;;
19923;SDS011;10124;53.068;18.224;2023-03-01T09:54:28;36.58;;;20.85;;
19923;SDS011;10124;53.068;18.224;2023-03-01T10:02:35;29.38;;;16.73;;
19923;SDS011;10124;53.068;18.224;2023-03-01T10:10:57;32.47;;;18.60;;
19923;SDS011;10124;53.068;18.224;2023-03-01T10:13:27;33.38;;;18.15;;
19923;SDS011;10124;53.068;18.224;2023-03-01T10:16:10;35.38;;;19.80;;
19923;SDS011;10124;53.068;18.224;2023-03-01T10:18:41;34.58;;;18.83;;
19923;SDS011;10124;53.068;18.224;2023-03-01T10:21:14;29.95;;;16.75;;
19923;SDS011;10124;53.068;18.224;2023-03-01T10:23:44;29.73;;;16.20;;
19923;SDS011;10124;53.068;18.224;2023-03-01T10:31:39;26.67;;;15.73;;
19923;SDS011;10124;53.068;18.224;2023-03-01T10:34:12;31.55;;;17.70;;
19923;SDS011;10124;53.068;18.224;2023-03-01T10:36:49;37.13;;;22.17;;
19923;SDS011;10124;53.068;18.224;2023-03-01T10:39:20;34.58;;;17.73;;
19923;SDS011;10124;53.068;18.224;2023-03-01T10:44:44;34.80;;;19.20;;
19923;SDS011;10124;53.068;18.224;2023-03-01T10:49:54;27.88;;;14.77;;
19923;SDS011;10124;53.068;18.224;2023-03-01T10:52:24;23.25;;;12.38;;
19923;SDS011;10124;53.068;18.224;2023-03-01T10:55:01;21.95;;;12.65;;
19923;SDS011;10124;53.068;18.224;2023-03-01T10:57:33;22.40;;;13.15;;
19923;SDS011;10124;53.068;18.224;2023-03-01T11:02:50;23.52;;;13.95;;
19923;SDS011;10124;53.068;18.224;2023-03-01T11:05:30;26.10;;;15.23;;
19923;SDS011;10124;53.068;18.224;2023-03-01T11:08:01;25.65;;;13.40;;
19923;SDS011;10124;53.068;18.224;2023-03-01T11:10:31;20.05;;;10.52;;
19923;SDS011;10124;53.068;18.224;2023-03-01T11:13:08;21.45;;;13.52;;
19923;SDS011;10124;53.068;18.224;2023-03-01T11:15:42;19.73;;;13.23;;
19923;SDS011;10124;53.068;18.224;2023-03-01T11:18:20;24.10;;;11.90;;
19923;SDS011;10124;53.068;18.224;2023-03-01T11:21:02;18.08;;;11.48;;
19923;SDS011;10124;53.068;18.224;2023-03-01T11:23:32;17.13;;;10.65;;
19923;SDS011;10124;53.068;18.224;2023-03-01T11:26:01;23.08;;;13.02;;
19923;SDS011;10124;53.068;18.224;2023-03-01T11:28:38;18.10;;;10.95;;
19923;SDS011;10124;53.068;18.224;2023-03-01T11:31:09;19.38;;;10.95;;
19923;SDS011;10124;53.068;18.224;2023-03-01T11:36:56;22.13;;;10.48;;
19923;SDS011;10124;53.068;18.224;2023-03-01T11:39:32;22.67;;;12.38;;
19923;SDS011;10124;53.068;18.224;2023-03-01T11:45:36;23.23;;;14.10;;
19923;SDS011;10124;53.068;18.224;2023-03-01T11:54:25;14.13;;;9.05;;
19923;SDS011;10124;53.068;18.224;2023-03-01T11:57:08;16.52;;;8.85;;
19923;SDS011;10124;53.068;18.224;2023-03-01T12:10:57;18.55;;;9.98;;
19923;SDS011;10124;53.068;18.224;2023-03-01T12:16:49;15.82;;;8.73;;
19923;SDS011;10124;53.068;18.224;2023-03-01T12:22:29;21.98;;;10.80;;
19923;SDS011;10124;53.068;18.224;2023-03-01T12:33:12;18.95;;;10.57;;
19923;SDS011;10124;53.068;18.224;2023-03-01T12:35:51;21.17;;;12.85;;
19923;SDS011;10124;53.068;18.224;2023-03-01T12:38:37;18.27;;;11.20;;
19923;SDS011;10124;53.068;18.224;2023-03-01T12:47:19;14.63;;;9.65;;
19923;SDS011;10124;53.068;18.224;2023-03-01T12:50:10;86.93;;;16.35;;
19923;SDS011;10124;53.068;18.224;2023-03-01T12:52:56;21.30;;;11.30;;
19923;SDS011;10124;53.068;18.224;2023-03-01T12:58:07;51.90;;;18.08;;
19923;SDS011;10124;53.068;18.224;2023-03-01T13:07:17;59.83;;;12.65;;
19923;SDS011;10124;53.068;18.224;2023-03-01T13:17:53;17.80;;;11.30;;
19923;SDS011;10124;53.068;18.224;2023-03-01T13:20:34;23.88;;;10.95;;
19923;SDS011;10124;53.068;18.224;2023-03-01T13:31:03;23.23;;;13.40;;
19923;SDS011;10124;53.068;18.224;2023-03-01T13:36:03;12.43;;;8.95;;
19923;SDS011;10124;53.068;18.224;2023-03-01T13:41:04;14.52;;;9.35;;
19923;SDS011;10124;53.068;18.224;2023-03-01T13:43:33;16.48;;;10.55;;
19923;SDS011;10124;53.068;18.224;2023-03-01T13:46:36;19.75;;;12.93;;
19923;SDS011;10124;53.068;18.224;2023-03-01T13:48:57;17.92;;;10.60;;
19923;SDS011;10124;53.068;18.224;2023-03-01T13:51:25;15.77;;;11.13;;
19923;SDS011;10124;53.068;18.224;2023-03-01T13:53:54;31.55;;;16.52;;
19923;SDS011;10124;53.068;18.224;2023-03-01T13:56:26;17.33;;;10.48;;
19923;SDS011;10124;53.068;18.224;2023-03-01T13:59:01;19.40;;;12.63;;
19923;SDS011;10124;53.068;18.224;2023-03-01T14:01:34;22.20;;;14.75;;
19923;SDS011;10124;53.068;18.224;2023-03-01T14:04:03;25.67;;;20.48;;
19923;SDS011;10124;53.068;18.224;2023-03-01T14:09:40;20.35;;;10.32;;
19923;SDS011;10124;53.068;18.224;2023-03-01T14:20:01;17.33;;;11.43;;
19923;SDS011;10124;53.068;18.224;2023-03-01T14:22:36;16.38;;;10.77;;
19923;SDS011;10124;53.068;18.224;2023-03-01T14:25:21;19.77;;;11.68;;
19923;SDS011;10124;53.068;18.224;2023-03-01T14:28:02;21.55;;;13.35;;
19923;SDS011;10124;53.068;18.224;2023-03-01T14:30:36;18.90;;;9.32;;
19923;SDS011;10124;53.068;18.224;2023-03-01T14:33:22;18.75;;;9.75;;
19923;SDS011;10124;53.068;18.224;2023-03-01T14:35:54;17.85;;;11.50;;
19923;SDS011;10124;53.068;18.224;2023-03-01T14:38:31;20.38;;;12.63;;
19923;SDS011;10124;53.068;18.224;2023-03-01T14:43:53;19.38;;;11.68;;
19923;SDS011;10124;53.068;18.224;2023-03-01T14:46:43;18.73;;;11.35;;
19923;SDS011;10124;53.068;18.224;2023-03-01T14:49:14;20.55;;;11.52;;
19923;SDS011;10124;53.068;18.224;2023-03-01T14:51:59;19.98;;;10.68;;
19923;SDS011;10124;53.068;18.224;2023-03-01T14:54:41;17.70;;;10.88;;
19923;SDS011;10124;53.068;18.224;2023-03-01T14:57:25;22.25;;;12.98;;
19923;SDS011;10124;53.068;18.224;2023-03-01T14:59:54;23.05;;;13.88;;
19923;SDS011;10124;53.068;18.224;2023-03-01T15:02:25;29.63;;;15.13;;
19923;SDS011;10124;53.068;18.224;2023-03-01T15:04:56;33.15;;;18.77;;
19923;SDS011;10124;53.068;18.224;2023-03-01T15:07:36;44.20;;;26.23;;
19923;SDS011;10124;53.068;18.224;2023-03-01T15:10:14;34.22;;;17.75;;
19923;SDS011;10124;53.068;18.224;2023-03-01T15:12:52;47.92;;;25.45;;
19923;SDS011;10124;53.068;18.224;2023-03-01T15:15:21;45.47;;;24.58;;
19923;SDS011;10124;53.068;18.224;2023-03-01T15:17:58;40.90;;;21.30;;
19923;SDS011;10124;53.068;18.224;2023-03-01T15:20:47;55.08;;;29.05;;
19923;SDS011;10124;53.068;18.224;2023-03-01T15:23:26;46.72;;;25.73;;
19923;SDS011;10124;53.068;18.224;2023-03-01T15:25:56;39.00;;;22.57;;
19923;SDS011;10124;53.068;18.224;2023-03-01T15:28:26;42.97;;;21.67;;
19923;SDS011;10124;53.068;18.224;2023-03-01T15:33:39;47.40;;;25.33;;
19923;SDS011;10124;53.068;18.224;2023-03-01T15:39:23;32.60;;;19.63;;
19923;SDS011;10124;53.068;18.224;2023-03-01T15:42:06;38.07;;;23.13;;
19923;SDS011;10124;53.068;18.224;2023-03-01T15:48:02;47.23;;;30.00;;
19923;SDS011;10124;53.068;18.224;2023-03-01T15:50:33;60.53;;;34.97;;
19923;SDS011;10124;53.068;18.224;2023-03-01T15:53:12;56.43;;;34.30;;
19923;SDS011;10124;53.068;18.224;2023-03-01T15:55:44;55.80;;;33.43;;
19923;SDS011;10124;53.068;18.224;2023-03-01T15:58:17;49.10;;;31.53;;
19923;SDS011;10124;53.068;18.224;2023-03-01T16:00:47;61.83;;;35.40;;
19923;SDS011;10124;53.068;18.224;2023-03-01T16:03:27;62.47;;;35.80;;
19923;SDS011;10124;53.068;18.224;2023-03-01T16:05:55;63.77;;;35.77;;
19923;SDS011;10124;53.068;18.224;2023-03-01T16:08:23;65.20;;;36.00;;
19923;SDS011;10124;53.068;18.224;2023-03-01T16:10:51;67.73;;;36.90;;
19923;SDS011;10124;53.068;18.224;2023-03-01T16:13:21;54.10;;;28.77;;
19923;SDS011;10124;53.068;18.224;2023-03-01T16:15:48;56.77;;;31.93;;
19923;SDS011;10124;53.068;18.224;2023-03-01T16:18:16;47.27;;;26.70;;
19923;SDS011;10124;53.068;18.224;2023-03-01T16:20:44;46.97;;;23.87;;
19923;SDS011;10124;53.068;18.224;2023-03-01T16:23:12;37.50;;;21.37;;
19923;SDS011;10124;53.068;18.224;2023-03-01T16:25:41;35.50;;;21.93;;
19923;SDS011;10124;53.068;18.224;2023-03-01T16:28:08;35.20;;;19.80;;
19923;SDS011;10124;53.068;18.224;2023-03-01T16:30:37;30.77;;;18.10;;
19923;SDS011;10124;53.068;18.224;2023-03-01T16:33:07;29.87;;;18.43;;
19923;SDS011;10124;53.068;18.224;2023-03-01T16:35:55;25.87;;;17.27;;
19923;SDS011;10124;53.068;18.224;2023-03-01T16:38:23;24.83;;;15.10;;
19923;SDS011;10124;53.068;18.224;2023-03-01T16:40:51;31.63;;;15.23;;
19923;SDS011;10124;53.068;18.224;2023-03-01T16:43:19;24.60;;;14.27;;
19923;SDS011;10124;53.068;18.224;2023-03-01T16:45:47;21.87;;;13.80;;
19923;SDS011;10124;53.068;18.224;2023-03-01T16:48:15;23.53;;;13.47;;
19923;SDS011;10124;53.068;18.224;2023-03-01T16:50:42;24.33;;;13.63;;